sensor_id;sensor_type;location;lat;lon;timestamp;P1;durP1;ratioP1;P2;durP2;ratioP2
20476;SDS011;10397;50.948;11.092;2022-10-31T00:02:09;10.95;;;1.98;;
20476;SDS011;10397;50.948;11.092;2022-10-31T00:04:40;9.90;;;1.72;;
20476;SDS011;10397;50.948;11.092;2022-10-31T00:07:12;17.27;;;2.95;;
20476;SDS011;10397;50.948;11.092;2022-10-31T00:09:42;14.07;;;2.80;;
20476;SDS011;10397;50.948;11.092;2022-10-31T00:12:13;7.20;;;1.93;;
20476;SDS011;10397;50.948;11.092;2022-10-31T00:14:44;5.30;;;1.40;;
20476;SDS011;10397;50.948;11.092;2022-10-31T00:17:14;4.33;;;2.03;;
20476;SDS011;10397;50.948;11.092;2022-10-31T00:19:45;5.00;;;1.98;;
20476;SDS011;10397;50.948;11.092;2022-10-31T00:22:15;4.20;;;1.90;;
20476;SDS011;10397;50.948;11.092;2022-10-31T00:24:47;7.12;;;2.00;;
20476;SDS011;10397;50.948;11.092;2022-10-31T00:27:17;5.37;;;1.53;;
20476;SDS011;10397;50.948;11.092;2022-10-31T00:29:47;3.77;;;1.67;;
20476;SDS011;10397;50.948;11.092;2022-10-31T00:32:18;6.77;;;1.73;;
20476;SDS011;10397;50.948;11.092;2022-10-31T00:34:49;5.45;;;1.95;;
20476;SDS011;10397;50.948;11.092;2022-10-31T00:37:20;6.03;;;2.10;;
20476;SDS011;10397;50.948;11.092;2022-10-31T00:39:50;5.43;;;1.60;;
20476;SDS011;10397;50.948;11.092;2022-10-31T00:42:22;6.97;;;1.70;;
20476;SDS011;10397;50.948;11.092;2022-10-31T00:44:53;7.63;;;1.70;;
20476;SDS011;10397;50.948;11.092;2022-10-31T00:47:24;5.85;;;2.12;;
20476;SDS011;10397;50.948;11.092;2022-10-31T00:49:54;6.13;;;1.77;;
20476;SDS011;10397;50.948;11.092;2022-10-31T00:52:25;6.40;;;1.80;;
20476;SDS011;10397;50.948;11.092;2022-10-31T00:54:56;4.92;;;1.67;;
20476;SDS011;10397;50.948;11.092;2022-10-31T00:57:27;4.60;;;1.82;;
20476;SDS011;10397;50.948;11.092;2022-10-31T00:59:58;5.87;;;2.00;;
20476;SDS011;10397;50.948;11.092;2022-10-31T01:02:28;6.63;;;1.93;;
20476;SDS011;10397;50.948;11.092;2022-10-31T01:04:59;2.60;;;1.40;;
20476;SDS011;10397;50.948;11.092;2022-10-31T01:07:30;3.92;;;1.47;;
20476;SDS011;10397;50.948;11.092;2022-10-31T01:10:01;5.10;;;1.70;;
20476;SDS011;10397;50.948;11.092;2022-10-31T01:12:38;6.80;;;1.87;;
20476;SDS011;10397;50.948;11.092;2022-10-31T01:15:09;4.50;;;1.57;;
20476;SDS011;10397;50.948;11.092;2022-10-31T01:17:39;6.30;;;2.00;;
20476;SDS011;10397;50.948;11.092;2022-10-31T01:20:10;2.90;;;1.53;;
20476;SDS011;10397;50.948;11.092;2022-10-31T01:22:41;6.30;;;2.02;;
20476;SDS011;10397;50.948;11.092;2022-10-31T01:25:11;4.30;;;1.63;;
20476;SDS011;10397;50.948;11.092;2022-10-31T01:27:42;6.28;;;1.60;;
20476;SDS011;10397;50.948;11.092;2022-10-31T01:30:12;5.27;;;1.63;;
20476;SDS011;10397;50.948;11.092;2022-10-31T01:32:43;7.03;;;2.53;;
20476;SDS011;10397;50.948;11.092;2022-10-31T01:35:14;5.55;;;1.40;;
20476;SDS011;10397;50.948;11.092;2022-10-31T01:37:45;6.58;;;1.60;;
20476;SDS011;10397;50.948;11.092;2022-10-31T01:40:16;4.63;;;1.63;;
20476;SDS011;10397;50.948;11.092;2022-10-31T01:42:46;9.50;;;1.90;;
20476;SDS011;10397;50.948;11.092;2022-10-31T01:45:17;6.73;;;1.77;;
20476;SDS011;10397;50.948;11.092;2022-10-31T01:47:48;6.75;;;1.82;;
20476;SDS011;10397;50.948;11.092;2022-10-31T01:50:37;5.33;;;1.90;;
20476;SDS011;10397;50.948;11.092;2022-10-31T01:52:52;5.63;;;2.00;;
20476;SDS011;10397;50.948;11.092;2022-10-31T01:55:24;5.37;;;1.72;;
20476;SDS011;10397;50.948;11.092;2022-10-31T01:57:55;5.65;;;2.27;;
20476;SDS011;10397;50.948;11.092;2022-10-31T02:00:25;3.70;;;1.55;;
20476;SDS011;10397;50.948;11.092;2022-10-31T02:02:56;6.87;;;1.90;;
20476;SDS011;10397;50.948;11.092;2022-10-31T02:05:27;4.97;;;1.67;;
20476;SDS011;10397;50.948;11.092;2022-10-31T02:08:08;6.17;;;2.40;;
20476;SDS011;10397;50.948;11.092;2022-10-31T02:10:37;6.20;;;1.93;;
20476;SDS011;10397;50.948;11.092;2022-10-31T02:13:24;7.43;;;1.93;;
20476;SDS011;10397;50.948;11.092;2022-10-31T02:15:56;4.40;;;2.00;;
20476;SDS011;10397;50.948;11.092;2022-10-31T02:18:26;4.87;;;1.80;;
20476;SDS011;10397;50.948;11.092;2022-10-31T02:20:58;7.17;;;2.42;;
20476;SDS011;10397;50.948;11.092;2022-10-31T02:30:03;4.97;;;1.90;;
20476;SDS011;10397;50.948;11.092;2022-10-31T02:34:44;9.33;;;2.00;;
20476;SDS011;10397;50.948;11.092;2022-10-31T02:37:14;7.20;;;2.13;;
20476;SDS011;10397;50.948;11.092;2022-10-31T02:40:05;8.83;;;1.90;;
20476;SDS011;10397;50.948;11.092;2022-10-31T02:42:59;8.67;;;2.07;;
20476;SDS011;10397;50.948;11.092;2022-10-31T02:45:31;4.23;;;1.63;;
20476;SDS011;10397;50.948;11.092;2022-10-31T02:47:59;5.10;;;1.87;;
20476;SDS011;10397;50.948;11.092;2022-10-31T02:50:30;5.00;;;1.80;;
20476;SDS011;10397;50.948;11.092;2022-10-31T02:53:02;6.23;;;2.30;;
20476;SDS011;10397;50.948;11.092;2022-10-31T02:58:08;5.70;;;2.00;;
20476;SDS011;10397;50.948;11.092;2022-10-31T03:00:39;6.03;;;2.50;;
20476;SDS011;10397;50.948;11.092;2022-10-31T03:08:24;3.15;;;2.27;;
20476;SDS011;10397;50.948;11.092;2022-10-31T03:10:56;6.70;;;2.10;;
20476;SDS011;10397;50.948;11.092;2022-10-31T03:16:16;5.80;;;2.37;;
20476;SDS011;10397;50.948;11.092;2022-10-31T03:21:44;9.60;;;2.13;;
20476;SDS011;10397;50.948;11.092;2022-10-31T03:24:17;8.00;;;1.70;;
20476;SDS011;10397;50.948;11.092;2022-10-31T03:26:49;6.65;;;2.35;;
20476;SDS011;10397;50.948;11.092;2022-10-31T03:29:19;5.67;;;2.10;;
20476;SDS011;10397;50.948;11.092;2022-10-31T03:31:51;4.03;;;2.58;;
20476;SDS011;10397;50.948;11.092;2022-10-31T03:34:20;3.80;;;1.73;;
20476;SDS011;10397;50.948;11.092;2022-10-31T03:36:52;5.47;;;2.58;;
20476;SDS011;10397;50.948;11.092;2022-10-31T03:39:21;9.30;;;2.40;;
20476;SDS011;10397;50.948;11.092;2022-10-31T03:42:07;4.97;;;1.82;;
20476;SDS011;10397;50.948;11.092;2022-10-31T03:44:35;6.67;;;2.13;;
20476;SDS011;10397;50.948;11.092;2022-10-31T03:47:06;6.05;;;2.35;;
20476;SDS011;10397;50.948;11.092;2022-10-31T03:49:36;4.23;;;2.50;;
20476;SDS011;10397;50.948;11.092;2022-10-31T03:54:54;4.43;;;2.13;;
20476;SDS011;10397;50.948;11.092;2022-10-31T03:57:37;5.83;;;2.07;;
20476;SDS011;10397;50.948;11.092;2022-10-31T04:00:24;7.00;;;2.30;;
20476;SDS011;10397;50.948;11.092;2022-10-31T04:03:03;6.40;;;2.15;;
20476;SDS011;10397;50.948;11.092;2022-10-31T04:05:32;3.50;;;2.07;;
20476;SDS011;10397;50.948;11.092;2022-10-31T04:08:03;4.25;;;2.10;;
20476;SDS011;10397;50.948;11.092;2022-10-31T04:10:33;4.63;;;1.87;;
20476;SDS011;10397;50.948;11.092;2022-10-31T04:13:05;4.47;;;1.80;;
20476;SDS011;10397;50.948;11.092;2022-10-31T04:15:36;5.30;;;2.23;;
20476;SDS011;10397;50.948;11.092;2022-10-31T04:18:07;5.47;;;2.08;;
20476;SDS011;10397;50.948;11.092;2022-10-31T04:20:39;5.37;;;1.87;;
20476;SDS011;10397;50.948;11.092;2022-10-31T04:23:19;5.03;;;2.08;;
20476;SDS011;10397;50.948;11.092;2022-10-31T04:25:49;8.23;;;2.23;;
20476;SDS011;10397;50.948;11.092;2022-10-31T04:28:20;5.25;;;2.33;;
20476;SDS011;10397;50.948;11.092;2022-10-31T04:30:51;4.65;;;2.30;;
20476;SDS011;10397;50.948;11.092;2022-10-31T04:33:21;5.50;;;2.53;;
20476;SDS011;10397;50.948;11.092;2022-10-31T04:35:52;9.83;;;2.55;;
20476;SDS011;10397;50.948;11.092;2022-10-31T04:38:23;4.27;;;2.10;;
20476;SDS011;10397;50.948;11.092;2022-10-31T04:40:54;6.33;;;2.80;;
20476;SDS011;10397;50.948;11.092;2022-10-31T04:43:25;4.50;;;2.53;;
20476;SDS011;10397;50.948;11.092;2022-10-31T04:45:56;5.87;;;2.35;;
20476;SDS011;10397;50.948;11.092;2022-10-31T04:48:27;5.55;;;2.52;;
20476;SDS011;10397;50.948;11.092;2022-10-31T04:50:58;8.07;;;2.70;;
20476;SDS011;10397;50.948;11.092;2022-10-31T04:53:28;7.15;;;2.22;;
20476;SDS011;10397;50.948;11.092;2022-10-31T04:55:59;5.42;;;2.50;;
20476;SDS011;10397;50.948;11.092;2022-10-31T04:58:31;7.50;;;2.35;;
20476;SDS011;10397;50.948;11.092;2022-10-31T05:01:01;4.97;;;2.17;;
20476;SDS011;10397;50.948;11.092;2022-10-31T05:03:32;4.87;;;1.87;;
20476;SDS011;10397;50.948;11.092;2022-10-31T05:06:03;4.73;;;2.07;;
20476;SDS011;10397;50.948;11.092;2022-10-31T05:08:34;5.70;;;2.27;;
20476;SDS011;10397;50.948;11.092;2022-10-31T05:11:04;5.90;;;2.37;;
20476;SDS011;10397;50.948;11.092;2022-10-31T05:13:35;4.42;;;2.17;;
20476;SDS011;10397;50.948;11.092;2022-10-31T05:16:06;4.37;;;1.77;;
20476;SDS011;10397;50.948;11.092;2022-10-31T05:18:37;4.65;;;2.27;;
20476;SDS011;10397;50.948;11.092;2022-10-31T05:21:08;9.13;;;2.50;;
20476;SDS011;10397;50.948;11.092;2022-10-31T05:23:38;10.60;;;3.07;;
20476;SDS011;10397;50.948;11.092;2022-10-31T05:26:09;7.22;;;3.00;;
20476;SDS011;10397;50.948;11.092;2022-10-31T05:28:40;6.53;;;2.05;;
20476;SDS011;10397;50.948;11.092;2022-10-31T05:31:12;3.42;;;2.37;;
20476;SDS011;10397;50.948;11.092;2022-10-31T05:33:42;6.13;;;2.60;;
20476;SDS011;10397;50.948;11.092;2022-10-31T05:36:13;8.05;;;2.65;;
20476;SDS011;10397;50.948;11.092;2022-10-31T05:38:43;11.83;;;3.03;;
20476;SDS011;10397;50.948;11.092;2022-10-31T05:41:15;7.53;;;2.98;;
20476;SDS011;10397;50.948;11.092;2022-10-31T05:43:45;3.40;;;1.63;;
20476;SDS011;10397;50.948;11.092;2022-10-31T05:46:16;6.17;;;2.40;;
20476;SDS011;10397;50.948;11.092;2022-10-31T05:48:48;6.22;;;1.95;;
20476;SDS011;10397;50.948;11.092;2022-10-31T05:51:18;6.70;;;2.70;;
20476;SDS011;10397;50.948;11.092;2022-10-31T05:53:49;4.72;;;3.02;;
20476;SDS011;10397;50.948;11.092;2022-10-31T05:56:20;7.65;;;2.92;;
20476;SDS011;10397;50.948;11.092;2022-10-31T05:58:52;4.42;;;2.55;;
20476;SDS011;10397;50.948;11.092;2022-10-31T06:01:23;8.20;;;2.52;;
20476;SDS011;10397;50.948;11.092;2022-10-31T06:03:54;6.90;;;2.55;;
20476;SDS011;10397;50.948;11.092;2022-10-31T06:06:25;8.07;;;2.70;;
20476;SDS011;10397;50.948;11.092;2022-10-31T06:08:56;4.40;;;2.37;;
20476;SDS011;10397;50.948;11.092;2022-10-31T06:11:27;5.42;;;2.80;;
20476;SDS011;10397;50.948;11.092;2022-10-31T06:13:57;3.10;;;2.30;;
20476;SDS011;10397;50.948;11.092;2022-10-31T06:16:29;6.03;;;2.08;;
20476;SDS011;10397;50.948;11.092;2022-10-31T06:19:00;9.08;;;2.70;;
20476;SDS011;10397;50.948;11.092;2022-10-31T06:21:31;10.75;;;2.80;;
20476;SDS011;10397;50.948;11.092;2022-10-31T06:24:02;4.23;;;2.03;;
20476;SDS011;10397;50.948;11.092;2022-10-31T06:26:33;6.40;;;2.37;;
20476;SDS011;10397;50.948;11.092;2022-10-31T06:29:04;6.87;;;2.50;;
20476;SDS011;10397;50.948;11.092;2022-10-31T06:31:35;4.42;;;1.95;;
20476;SDS011;10397;50.948;11.092;2022-10-31T06:34:05;11.23;;;3.13;;
20476;SDS011;10397;50.948;11.092;2022-10-31T06:36:36;5.53;;;2.80;;
20476;SDS011;10397;50.948;11.092;2022-10-31T06:39:07;9.87;;;2.90;;
20476;SDS011;10397;50.948;11.092;2022-10-31T06:41:38;5.78;;;2.60;;
20476;SDS011;10397;50.948;11.092;2022-10-31T06:44:08;5.93;;;2.60;;
20476;SDS011;10397;50.948;11.092;2022-10-31T06:46:39;4.47;;;2.00;;
20476;SDS011;10397;50.948;11.092;2022-10-31T06:49:11;4.17;;;2.30;;
20476;SDS011;10397;50.948;11.092;2022-10-31T06:51:42;5.75;;;2.50;;
20476;SDS011;10397;50.948;11.092;2022-10-31T06:54:13;7.12;;;2.65;;
20476;SDS011;10397;50.948;11.092;2022-10-31T06:56:47;7.33;;;2.20;;
20476;SDS011;10397;50.948;11.092;2022-10-31T06:59:17;4.63;;;2.73;;
20476;SDS011;10397;50.948;11.092;2022-10-31T07:01:48;3.90;;;2.50;;
20476;SDS011;10397;50.948;11.092;2022-10-31T07:04:19;9.00;;;2.83;;
20476;SDS011;10397;50.948;11.092;2022-10-31T07:06:50;5.87;;;2.08;;
20476;SDS011;10397;50.948;11.092;2022-10-31T07:09:20;6.77;;;2.43;;
20476;SDS011;10397;50.948;11.092;2022-10-31T07:11:52;7.97;;;2.42;;
20476;SDS011;10397;50.948;11.092;2022-10-31T07:14:22;5.50;;;2.50;;
20476;SDS011;10397;50.948;11.092;2022-10-31T07:16:53;6.87;;;3.25;;
20476;SDS011;10397;50.948;11.092;2022-10-31T07:19:24;8.43;;;3.63;;
20476;SDS011;10397;50.948;11.092;2022-10-31T07:21:54;5.83;;;2.60;;
20476;SDS011;10397;50.948;11.092;2022-10-31T07:24:26;3.77;;;2.42;;
20476;SDS011;10397;50.948;11.092;2022-10-31T07:26:56;6.33;;;2.73;;
20476;SDS011;10397;50.948;11.092;2022-10-31T07:29:27;9.78;;;3.58;;
20476;SDS011;10397;50.948;11.092;2022-10-31T07:31:58;5.60;;;3.27;;
20476;SDS011;10397;50.948;11.092;2022-10-31T07:34:29;8.03;;;2.83;;
20476;SDS011;10397;50.948;11.092;2022-10-31T07:36:59;8.43;;;3.00;;
20476;SDS011;10397;50.948;11.092;2022-10-31T07:39:30;4.50;;;2.27;;
20476;SDS011;10397;50.948;11.092;2022-10-31T07:42:01;10.97;;;3.73;;
20476;SDS011;10397;50.948;11.092;2022-10-31T07:44:32;3.52;;;2.62;;
20476;SDS011;10397;50.948;11.092;2022-10-31T07:47:03;5.53;;;3.10;;
20476;SDS011;10397;50.948;11.092;2022-10-31T07:49:34;8.70;;;3.30;;
20476;SDS011;10397;50.948;11.092;2022-10-31T07:52:05;10.90;;;3.70;;
20476;SDS011;10397;50.948;11.092;2022-10-31T07:54:36;5.67;;;3.42;;
20476;SDS011;10397;50.948;11.092;2022-10-31T07:57:07;7.25;;;3.27;;
20476;SDS011;10397;50.948;11.092;2022-10-31T07:59:38;9.93;;;3.70;;
20476;SDS011;10397;50.948;11.092;2022-10-31T08:02:09;11.22;;;5.08;;
20476;SDS011;10397;50.948;11.092;2022-10-31T08:04:39;7.97;;;3.90;;
20476;SDS011;10397;50.948;11.092;2022-10-31T08:07:11;12.63;;;4.25;;
20476;SDS011;10397;50.948;11.092;2022-10-31T08:09:42;10.30;;;4.37;;
20476;SDS011;10397;50.948;11.092;2022-10-31T08:12:13;8.40;;;4.20;;
20476;SDS011;10397;50.948;11.092;2022-10-31T08:14:44;5.78;;;3.65;;
20476;SDS011;10397;50.948;11.092;2022-10-31T08:17:15;9.07;;;4.13;;
20476;SDS011;10397;50.948;11.092;2022-10-31T08:19:46;9.70;;;3.83;;
20476;SDS011;10397;50.948;11.092;2022-10-31T08:22:17;6.83;;;4.75;;
20476;SDS011;10397;50.948;11.092;2022-10-31T08:24:48;9.03;;;5.27;;
20476;SDS011;10397;50.948;11.092;2022-10-31T08:27:19;7.70;;;4.80;;
20476;SDS011;10397;50.948;11.092;2022-10-31T08:29:50;10.53;;;4.20;;
20476;SDS011;10397;50.948;11.092;2022-10-31T08:32:21;8.08;;;4.10;;
20476;SDS011;10397;50.948;11.092;2022-10-31T08:34:51;7.33;;;3.90;;
20476;SDS011;10397;50.948;11.092;2022-10-31T08:37:22;9.90;;;3.60;;
20476;SDS011;10397;50.948;11.092;2022-10-31T08:39:54;11.60;;;4.05;;
20476;SDS011;10397;50.948;11.092;2022-10-31T08:42:25;7.03;;;3.25;;
20476;SDS011;10397;50.948;11.092;2022-10-31T08:44:55;9.43;;;3.40;;
20476;SDS011;10397;50.948;11.092;2022-10-31T08:47:26;6.63;;;4.00;;
20476;SDS011;10397;50.948;11.092;2022-10-31T08:49:58;9.28;;;3.42;;
20476;SDS011;10397;50.948;11.092;2022-10-31T08:52:29;9.53;;;3.67;;
20476;SDS011;10397;50.948;11.092;2022-10-31T08:55:00;8.85;;;3.85;;
20476;SDS011;10397;50.948;11.092;2022-10-31T08:57:30;5.97;;;3.77;;
20476;SDS011;10397;50.948;11.092;2022-10-31T09:00:02;9.30;;;4.27;;
20476;SDS011;10397;50.948;11.092;2022-10-31T09:02:32;7.30;;;3.92;;
20476;SDS011;10397;50.948;11.092;2022-10-31T09:05:03;9.45;;;3.75;;
20476;SDS011;10397;50.948;11.092;2022-10-31T09:07:34;9.43;;;3.83;;
20476;SDS011;10397;50.948;11.092;2022-10-31T09:10:06;9.93;;;3.12;;
20476;SDS011;10397;50.948;11.092;2022-10-31T09:12:36;13.60;;;4.63;;
20476;SDS011;10397;50.948;11.092;2022-10-31T09:15:07;16.82;;;4.45;;
20476;SDS011;10397;50.948;11.092;2022-10-31T09:17:38;9.08;;;3.77;;
20476;SDS011;10397;50.948;11.092;2022-10-31T09:20:09;9.07;;;3.33;;
20476;SDS011;10397;50.948;11.092;2022-10-31T09:22:39;10.70;;;3.33;;
20476;SDS011;10397;50.948;11.092;2022-10-31T09:25:10;8.90;;;4.42;;
20476;SDS011;10397;50.948;11.092;2022-10-31T09:27:41;9.93;;;4.43;;
20476;SDS011;10397;50.948;11.092;2022-10-31T09:30:12;6.70;;;4.50;;
20476;SDS011;10397;50.948;11.092;2022-10-31T09:32:42;12.60;;;4.13;;
20476;SDS011;10397;50.948;11.092;2022-10-31T09:35:13;5.97;;;4.20;;
20476;SDS011;10397;50.948;11.092;2022-10-31T09:37:44;9.98;;;4.00;;
20476;SDS011;10397;50.948;11.092;2022-10-31T09:40:14;8.80;;;4.60;;
20476;SDS011;10397;50.948;11.092;2022-10-31T09:42:52;13.20;;;5.15;;
20476;SDS011;10397;50.948;11.092;2022-10-31T09:45:34;9.53;;;4.70;;
20476;SDS011;10397;50.948;11.092;2022-10-31T09:48:10;8.57;;;3.53;;
20476;SDS011;10397;50.948;11.092;2022-10-31T09:50:58;10.63;;;4.00;;
20476;SDS011;10397;50.948;11.092;2022-10-31T09:53:51;9.57;;;4.00;;
20476;SDS011;10397;50.948;11.092;2022-10-31T09:56:04;10.00;;;3.87;;
20476;SDS011;10397;50.948;11.092;2022-10-31T09:58:33;6.13;;;3.90;;
20476;SDS011;10397;50.948;11.092;2022-10-31T10:01:03;7.77;;;4.23;;
20476;SDS011;10397;50.948;11.092;2022-10-31T10:03:35;7.62;;;3.67;;
20476;SDS011;10397;50.948;11.092;2022-10-31T10:06:18;6.47;;;4.20;;
20476;SDS011;10397;50.948;11.092;2022-10-31T10:08:44;8.67;;;4.60;;
20476;SDS011;10397;50.948;11.092;2022-10-31T10:14:11;7.80;;;4.27;;
20476;SDS011;10397;50.948;11.092;2022-10-31T10:19:33;9.53;;;3.90;;
20476;SDS011;10397;50.948;11.092;2022-10-31T10:25:20;8.37;;;4.77;;
20476;SDS011;10397;50.948;11.092;2022-10-31T10:27:56;9.20;;;4.33;;
20476;SDS011;10397;50.948;11.092;2022-10-31T10:30:36;8.33;;;4.30;;
20476;SDS011;10397;50.948;11.092;2022-10-31T10:33:33;13.93;;;4.83;;
20476;SDS011;10397;50.948;11.092;2022-10-31T10:36:22;14.50;;;4.90;;
20476;SDS011;10397;50.948;11.092;2022-10-31T10:38:53;11.97;;;4.75;;
20476;SDS011;10397;50.948;11.092;2022-10-31T10:41:26;10.67;;;4.80;;
20476;SDS011;10397;50.948;11.092;2022-10-31T10:43:56;14.45;;;4.78;;
20476;SDS011;10397;50.948;11.092;2022-10-31T10:46:37;12.00;;;4.67;;
20476;SDS011;10397;50.948;11.092;2022-10-31T10:49:29;16.63;;;5.83;;
20476;SDS011;10397;50.948;11.092;2022-10-31T10:52:15;8.20;;;4.50;;
20476;SDS011;10397;50.948;11.092;2022-10-31T11:00:15;9.43;;;4.63;;
20476;SDS011;10397;50.948;11.092;2022-10-31T11:02:48;9.63;;;5.40;;
20476;SDS011;10397;50.948;11.092;2022-10-31T11:05:28;9.83;;;5.22;;
20476;SDS011;10397;50.948;11.092;2022-10-31T11:08:35;11.93;;;4.83;;
20476;SDS011;10397;50.948;11.092;2022-10-31T11:13:49;7.57;;;4.30;;
20476;SDS011;10397;50.948;11.092;2022-10-31T11:16:27;8.43;;;4.85;;
20476;SDS011;10397;50.948;11.092;2022-10-31T11:18:46;7.62;;;4.35;;
20476;SDS011;10397;50.948;11.092;2022-10-31T11:21:20;8.10;;;4.37;;
20476;SDS011;10397;50.948;11.092;2022-10-31T11:24:01;13.77;;;4.67;;
20476;SDS011;10397;50.948;11.092;2022-10-31T11:26:22;8.63;;;4.40;;
20476;SDS011;10397;50.948;11.092;2022-10-31T11:28:56;7.03;;;4.30;;
20476;SDS011;10397;50.948;11.092;2022-10-31T11:31:28;8.57;;;4.13;;
20476;SDS011;10397;50.948;11.092;2022-10-31T11:36:35;9.05;;;4.22;;
20476;SDS011;10397;50.948;11.092;2022-10-31T11:39:05;10.33;;;3.33;;
20476;SDS011;10397;50.948;11.092;2022-10-31T11:41:36;9.07;;;3.70;;
20476;SDS011;10397;50.948;11.092;2022-10-31T11:44:12;7.83;;;3.87;;
20476;SDS011;10397;50.948;11.092;2022-10-31T11:46:49;9.90;;;3.90;;
20476;SDS011;10397;50.948;11.092;2022-10-31T11:49:27;5.73;;;3.77;;
20476;SDS011;10397;50.948;11.092;2022-10-31T11:54:47;11.03;;;4.43;;
20476;SDS011;10397;50.948;11.092;2022-10-31T11:57:33;11.30;;;4.37;;
20476;SDS011;10397;50.948;11.092;2022-10-31T12:00:03;9.73;;;3.53;;
20476;SDS011;10397;50.948;11.092;2022-10-31T12:02:33;6.17;;;3.23;;
20476;SDS011;10397;50.948;11.092;2022-10-31T12:05:23;12.53;;;4.53;;
20476;SDS011;10397;50.948;11.092;2022-10-31T12:07:54;11.17;;;4.13;;
20476;SDS011;10397;50.948;11.092;2022-10-31T12:10:27;10.83;;;4.00;;
20476;SDS011;10397;50.948;11.092;2022-10-31T12:13:02;7.37;;;4.10;;
20476;SDS011;10397;50.948;11.092;2022-10-31T12:15:32;7.67;;;3.30;;
20476;SDS011;10397;50.948;11.092;2022-10-31T12:29:07;6.83;;;4.00;;
20476;SDS011;10397;50.948;11.092;2022-10-31T12:31:25;10.47;;;4.63;;
20476;SDS011;10397;50.948;11.092;2022-10-31T12:34:20;7.17;;;4.70;;
20476;SDS011;10397;50.948;11.092;2022-10-31T12:37:00;9.80;;;4.27;;
20476;SDS011;10397;50.948;11.092;2022-10-31T12:47:50;9.97;;;4.27;;
20476;SDS011;10397;50.948;11.092;2022-10-31T12:53:19;10.43;;;5.33;;
20476;SDS011;10397;50.948;11.092;2022-10-31T12:56:09;10.57;;;4.50;;
20476;SDS011;10397;50.948;11.092;2022-10-31T12:58:54;7.30;;;4.50;;
20476;SDS011;10397;50.948;11.092;2022-10-31T13:01:25;6.97;;;3.90;;
20476;SDS011;10397;50.948;11.092;2022-10-31T13:06:29;11.30;;;5.20;;
20476;SDS011;10397;50.948;11.092;2022-10-31T13:08:59;12.17;;;5.50;;
20476;SDS011;10397;50.948;11.092;2022-10-31T13:11:30;8.13;;;4.70;;
20476;SDS011;10397;50.948;11.092;2022-10-31T13:16:48;9.53;;;5.30;;
20476;SDS011;10397;50.948;11.092;2022-10-31T13:21:58;10.63;;;4.80;;
20476;SDS011;10397;50.948;11.092;2022-10-31T13:25:15;11.03;;;4.90;;
20476;SDS011;10397;50.948;11.092;2022-10-31T13:27:09;14.93;;;5.20;;
20476;SDS011;10397;50.948;11.092;2022-10-31T13:29:36;12.83;;;5.07;;
20476;SDS011;10397;50.948;11.092;2022-10-31T13:32:13;9.80;;;4.97;;
20476;SDS011;10397;50.948;11.092;2022-10-31T13:34:47;12.80;;;5.40;;
20476;SDS011;10397;50.948;11.092;2022-10-31T13:40:16;9.20;;;4.60;;
20476;SDS011;10397;50.948;11.092;2022-10-31T13:43:35;9.03;;;4.70;;
20476;SDS011;10397;50.948;11.092;2022-10-31T13:45:53;12.03;;;4.53;;
20476;SDS011;10397;50.948;11.092;2022-10-31T13:48:36;11.37;;;4.67;;
20476;SDS011;10397;50.948;11.092;2022-10-31T13:51:06;9.10;;;3.97;;
20476;SDS011;10397;50.948;11.092;2022-10-31T13:53:56;10.20;;;3.87;;
20476;SDS011;10397;50.948;11.092;2022-10-31T13:56:20;13.57;;;4.37;;
20476;SDS011;10397;50.948;11.092;2022-10-31T13:59:02;9.30;;;4.50;;
20476;SDS011;10397;50.948;11.092;2022-10-31T14:02:15;14.03;;;4.50;;
20476;SDS011;10397;50.948;11.092;2022-10-31T14:04:26;9.97;;;4.37;;
20476;SDS011;10397;50.948;11.092;2022-10-31T14:07:05;12.87;;;4.03;;
20476;SDS011;10397;50.948;11.092;2022-10-31T14:09:49;9.23;;;4.53;;
20476;SDS011;10397;50.948;11.092;2022-10-31T14:12:24;15.73;;;4.60;;
20476;SDS011;10397;50.948;11.092;2022-10-31T14:15:03;7.13;;;4.17;;
20476;SDS011;10397;50.948;11.092;2022-10-31T14:17:31;7.43;;;3.40;;
20476;SDS011;10397;50.948;11.092;2022-10-31T14:20:21;11.40;;;3.70;;
20476;SDS011;10397;50.948;11.092;2022-10-31T14:22:31;6.03;;;3.37;;
20476;SDS011;10397;50.948;11.092;2022-10-31T14:25:01;9.03;;;4.00;;
20476;SDS011;10397;50.948;11.092;2022-10-31T14:27:33;11.27;;;3.60;;
20476;SDS011;10397;50.948;11.092;2022-10-31T14:30:22;7.97;;;3.20;;
20476;SDS011;10397;50.948;11.092;2022-10-31T14:32:44;8.40;;;3.13;;
20476;SDS011;10397;50.948;11.092;2022-10-31T14:35:15;7.00;;;3.23;;
20476;SDS011;10397;50.948;11.092;2022-10-31T14:43:29;10.23;;;3.87;;
20476;SDS011;10397;50.948;11.092;2022-10-31T14:51:51;9.80;;;4.53;;
20476;SDS011;10397;50.948;11.092;2022-10-31T14:54:28;11.03;;;4.50;;
20476;SDS011;10397;50.948;11.092;2022-10-31T14:57:05;7.90;;;4.53;;
20476;SDS011;10397;50.948;11.092;2022-10-31T14:59:35;6.57;;;4.10;;
20476;SDS011;10397;50.948;11.092;2022-10-31T15:02:15;8.80;;;4.70;;
20476;SDS011;10397;50.948;11.092;2022-10-31T15:04:51;10.47;;;3.83;;
20476;SDS011;10397;50.948;11.092;2022-10-31T15:07:24;12.97;;;5.00;;
20476;SDS011;10397;50.948;11.092;2022-10-31T15:09:58;8.07;;;4.73;;
20476;SDS011;10397;50.948;11.092;2022-10-31T15:12:28;15.00;;;5.27;;
20476;SDS011;10397;50.948;11.092;2022-10-31T15:15:09;6.17;;;4.50;;
20476;SDS011;10397;50.948;11.092;2022-10-31T15:17:28;7.03;;;4.27;;
20476;SDS011;10397;50.948;11.092;2022-10-31T15:19:59;13.60;;;4.30;;
20476;SDS011;10397;50.948;11.092;2022-10-31T15:22:30;5.60;;;4.47;;
20476;SDS011;10397;50.948;11.092;2022-10-31T15:25:00;5.60;;;4.07;;
20476;SDS011;10397;50.948;11.092;2022-10-31T15:27:31;7.13;;;3.87;;
20476;SDS011;10397;50.948;11.092;2022-10-31T15:30:01;9.77;;;5.27;;
20476;SDS011;10397;50.948;11.092;2022-10-31T15:32:32;10.47;;;5.07;;
20476;SDS011;10397;50.948;11.092;2022-10-31T15:35:08;13.30;;;5.90;;
20476;SDS011;10397;50.948;11.092;2022-10-31T15:37:33;15.37;;;6.07;;
20476;SDS011;10397;50.948;11.092;2022-10-31T15:40:11;13.03;;;5.97;;
20476;SDS011;10397;50.948;11.092;2022-10-31T15:42:40;15.37;;;5.27;;
20476;SDS011;10397;50.948;11.092;2022-10-31T15:47:45;17.33;;;6.43;;
20476;SDS011;10397;50.948;11.092;2022-10-31T15:50:18;8.97;;;5.03;;
20476;SDS011;10397;50.948;11.092;2022-10-31T15:52:47;10.37;;;5.37;;
20476;SDS011;10397;50.948;11.092;2022-10-31T15:55:18;11.00;;;4.30;;
20476;SDS011;10397;50.948;11.092;2022-10-31T15:57:49;8.00;;;4.43;;
20476;SDS011;10397;50.948;11.092;2022-10-31T16:00:22;6.73;;;4.30;;
20476;SDS011;10397;50.948;11.092;2022-10-31T16:03:05;9.70;;;5.10;;
20476;SDS011;10397;50.948;11.092;2022-10-31T16:05:44;11.80;;;4.90;;
20476;SDS011;10397;50.948;11.092;2022-10-31T16:08:24;9.10;;;5.37;;
20476;SDS011;10397;50.948;11.092;2022-10-31T16:10:50;7.93;;;4.47;;
20476;SDS011;10397;50.948;11.092;2022-10-31T16:13:23;11.87;;;5.07;;
20476;SDS011;10397;50.948;11.092;2022-10-31T16:15:52;9.17;;;5.50;;
20476;SDS011;10397;50.948;11.092;2022-10-31T16:18:22;11.87;;;5.30;;
20476;SDS011;10397;50.948;11.092;2022-10-31T16:20:53;14.27;;;5.60;;
20476;SDS011;10397;50.948;11.092;2022-10-31T16:23:24;8.87;;;5.60;;
20476;SDS011;10397;50.948;11.092;2022-10-31T16:25:53;13.60;;;6.17;;
20476;SDS011;10397;50.948;11.092;2022-10-31T16:28:24;12.33;;;6.17;;
20476;SDS011;10397;50.948;11.092;2022-10-31T16:30:54;9.30;;;5.07;;
20476;SDS011;10397;50.948;11.092;2022-10-31T16:33:34;8.27;;;5.03;;
20476;SDS011;10397;50.948;11.092;2022-10-31T16:39:05;7.83;;;4.40;;
20476;SDS011;10397;50.948;11.092;2022-10-31T16:41:39;10.63;;;4.07;;